Bunker Hill, Illinois
Current Conditions -  °F | °C
As of 11:15 PM on Sunday 19 Oct 2014 (Local Time) from KALN Reporting Station
Broken Clouds Broken Clouds  
Wind Chill: 56°   Ceiling: 12000
Heat Index: 56°   Visibility: 10mi
Dew Point: 47°   Wind: 6mph
Humidity: 72%   Direction: 190°S
Pressure: 30.02"   Gusts: NA
Location:  39.04°N, 89.95°W
Report Text: KALN 200415Z AUTO 19005KT 10SM BKN120 13/08 A3002 RMK AO2 T01310081
Loading
Personal Weather Stations






























Interactive Weather Map
Tropical Storm Tracking
New forecast layout! Learn more

10-Day Weather Forecast

Advertisements
Track Severe Weather on mobile